createdAt,value
2023-05-13T00:00:26.975Z,11.25
2023-05-13T00:02:30.213Z,7.75
2023-05-13T00:04:31.870Z,11.25
2023-05-13T00:06:33.537Z,11.00
2023-05-13T00:08:37.668Z,12.75
2023-05-13T00:10:39.846Z,10.00
2023-05-13T00:12:41.823Z,7.00
2023-05-13T00:14:44.026Z,9.75
2023-05-13T00:16:45.639Z,12.25
2023-05-13T00:18:48.924Z,10.25
2023-05-13T00:20:50.863Z,9.50
2023-05-13T00:22:54.556Z,9.00
2023-05-13T00:24:56.132Z,7.75
2023-05-13T00:26:57.787Z,8.00
2023-05-13T00:28:59.743Z,8.50
2023-05-13T00:31:01.391Z,9.50
2023-05-13T00:33:03.262Z,9.25
2023-05-13T00:35:07.095Z,9.25
2023-05-13T00:37:08.876Z,5.00
2023-05-13T00:39:10.777Z,13.75
2023-05-13T00:41:12.597Z,10.25
2023-05-13T00:43:14.448Z,6.00
2023-05-13T00:45:18.184Z,7.25
2023-05-13T00:47:20.234Z,9.25
2023-05-13T00:49:22.211Z,12.75
2023-05-13T00:51:25.547Z,4.75
2023-05-13T00:53:27.321Z,12.25
2023-05-13T00:55:29.170Z,9.00
2023-05-13T00:57:30.859Z,9.25
2023-05-13T00:59:32.423Z,10.25
2023-05-13T01:01:42.115Z,6.50
2023-05-13T01:03:51.366Z,11.50
2023-05-13T01:06:01.762Z,13.00
2023-05-13T01:08:15.395Z,8.75
2023-05-13T01:10:28.054Z,8.75
2023-05-13T01:12:33.298Z,9.75
2023-05-13T01:14:40.523Z,11.00
2023-05-13T01:16:49.488Z,12.00
2023-05-13T01:18:56.805Z,13.25
2023-05-13T01:21:01.070Z,9.75
2023-05-13T01:23:04.117Z,11.00
2023-05-13T01:25:06.311Z,10.75
2023-05-13T01:27:08.451Z,12.00
2023-05-13T01:29:10.466Z,10.00
2023-05-13T01:31:13.168Z,9.00
2023-05-13T01:33:17.324Z,10.75
2023-05-13T01:35:20.817Z,6.75
2023-05-13T01:37:22.940Z,11.75
2023-05-13T01:39:26.593Z,8.25
2023-05-13T01:41:28.985Z,12.50
2023-05-13T01:43:31.021Z,14.75
2023-05-13T01:45:32.815Z,12.75
2023-05-13T01:47:34.719Z,12.00
2023-05-13T01:49:36.688Z,13.00
2023-05-13T01:51:38.658Z,10.50
2023-05-13T01:53:40.292Z,12.00
2023-05-13T01:55:43.285Z,13.00
2023-05-13T01:57:45.582Z,11.00
2023-05-13T01:59:47.201Z,12.75
2023-05-13T02:01:49.280Z,14.75
2023-05-13T02:03:51.541Z,14.00
2023-05-13T02:05:53.687Z,11.00
2023-05-13T02:07:55.700Z,13.00
2023-05-13T02:09:57.349Z,13.00
2023-05-13T02:12:00.575Z,10.25
2023-05-13T02:14:02.383Z,14.00
2023-05-13T02:16:05.244Z,10.75
2023-05-13T02:18:06.923Z,15.75
2023-05-13T02:20:10.048Z,9.25
2023-05-13T02:22:12.065Z,11.00
2023-05-13T02:24:13.724Z,19.25
2023-05-13T02:26:15.265Z,13.50
2023-05-13T02:28:18.229Z,13.50
2023-05-13T02:30:20.569Z,13.50
2023-05-13T02:32:22.464Z,14.25
2023-05-13T02:34:24.084Z,14.00
2023-05-13T02:36:25.624Z,13.00
2023-05-13T02:38:27.369Z,17.00
2023-05-13T02:40:28.913Z,11.50
2023-05-13T02:42:30.494Z,13.50
2023-05-13T02:44:33.594Z,14.00
2023-05-13T02:46:35.503Z,13.50
2023-05-13T02:48:37.142Z,12.00
2023-05-13T02:50:39.227Z,10.75
2023-05-13T02:52:41.174Z,12.75
2023-05-13T02:54:43.172Z,14.50
2023-05-13T02:56:44.827Z,14.00
2023-05-13T02:58:46.848Z,14.75
2023-05-13T03:00:49.802Z,13.00
2023-05-13T03:02:51.752Z,15.00
2023-05-13T03:04:53.573Z,12.25
2023-05-13T03:06:55.212Z,17.50
2023-05-13T03:08:57.063Z,13.75
2023-05-13T03:10:59.134Z,15.75
2023-05-13T03:13:01.482Z,13.50
2023-05-13T03:15:03.265Z,13.00
2023-05-13T03:17:07.214Z,18.25
2023-05-13T03:19:08.960Z,18.00
2023-05-13T03:21:10.852Z,12.75
2023-05-13T03:23:12.803Z,12.00
2023-05-13T03:25:14.455Z,13.25
2023-05-13T03:27:16.242Z,15.50
2023-05-13T03:29:18.139Z,15.50
2023-05-13T03:31:20.028Z,12.25
2023-05-13T03:33:23.328Z,8.50
2023-05-13T03:35:24.821Z,15.50
2023-05-13T03:37:26.670Z,14.25
2023-05-13T03:39:28.472Z,13.00
2023-05-13T03:41:30.089Z,12.75
2023-05-13T03:43:31.977Z,16.00
2023-05-13T03:45:33.503Z,12.00
2023-05-13T03:47:35.357Z,15.25
2023-05-13T03:49:38.336Z,11.00
2023-05-13T03:51:39.968Z,12.75
2023-05-13T03:53:41.824Z,10.75
2023-05-13T03:55:43.692Z,12.50
2023-05-13T03:57:51.403Z,12.25
2023-05-13T03:59:52.998Z,13.00
2023-05-13T04:01:54.897Z,9.50
2023-05-13T04:03:56.698Z,12.00
2023-05-13T04:05:59.910Z,11.00
2023-05-13T04:08:01.568Z,11.75
2023-05-13T04:10:03.472Z,14.00
2023-05-13T04:12:05.821Z,10.00
2023-05-13T04:14:07.432Z,13.00
2023-05-13T04:16:09.606Z,11.50
2023-05-13T04:18:11.230Z,10.50
2023-05-13T04:20:13.278Z,10.00
2023-05-13T04:22:16.224Z,10.00
2023-05-13T04:24:17.921Z,9.75
2023-05-13T04:26:19.514Z,10.00
2023-05-13T04:28:21.366Z,11.00
2023-05-13T04:30:23.602Z,10.00
2023-05-13T04:32:25.313Z,7.25
2023-05-13T04:34:27.162Z,7.25
2023-05-13T04:36:28.708Z,9.00
2023-05-13T04:38:32.372Z,11.00
2023-05-13T04:40:33.957Z,10.25
2023-05-13T04:42:35.787Z,11.25
2023-05-13T04:44:37.567Z,11.00
2023-05-13T04:46:39.163Z,12.00
2023-05-13T04:48:41.198Z,13.75
2023-05-13T04:50:45.962Z,10.50
2023-05-13T04:52:48.185Z,9.75
2023-05-13T04:54:51.897Z,8.00
2023-05-13T04:56:53.840Z,9.00
2023-05-13T04:58:55.416Z,9.00
2023-05-13T05:00:57.053Z,8.00
2023-05-13T05:02:58.788Z,9.50
2023-05-13T05:05:00.725Z,7.25
2023-05-13T05:07:02.336Z,8.50
2023-05-13T05:09:04.054Z,7.50
2023-05-13T05:11:06.976Z,5.75
2023-05-13T05:13:09.547Z,11.75
2023-05-13T05:15:11.998Z,8.00
2023-05-13T05:17:13.578Z,7.50
2023-05-13T05:19:15.915Z,7.75
2023-05-13T05:21:17.564Z,8.50
2023-05-13T05:23:19.203Z,7.00
2023-05-13T05:25:21.037Z,7.00
2023-05-13T05:27:24.346Z,7.75
2023-05-13T05:29:25.996Z,8.00
2023-05-13T05:31:27.672Z,9.25
2023-05-13T05:33:29.585Z,7.75
2023-05-13T05:35:31.414Z,8.00
2023-05-13T05:37:33.386Z,9.25
2023-05-13T05:39:35.285Z,8.00
2023-05-13T05:41:37.144Z,10.00
2023-05-13T05:43:40.592Z,8.25
2023-05-13T05:45:42.308Z,9.00
2023-05-13T05:47:43.861Z,9.50
2023-05-13T05:49:45.411Z,12.00
2023-05-13T05:51:47.026Z,8.00
2023-05-13T05:53:48.636Z,8.50
2023-05-13T05:55:51.673Z,7.75
2023-05-13T05:57:54.724Z,9.00
2023-05-13T05:59:58.454Z,4.00
2023-05-13T06:02:00.049Z,9.25
2023-05-13T06:04:01.781Z,8.25
2023-05-13T06:06:03.974Z,7.00
2023-05-13T06:08:05.872Z,9.50
2023-05-13T06:10:08.447Z,7.00
2023-05-13T06:12:10.958Z,8.00
2023-05-13T06:14:12.580Z,9.00
2023-05-13T06:16:15.575Z,7.25
2023-05-13T06:18:17.201Z,7.75
2023-05-13T06:20:19.337Z,8.00
2023-05-13T06:22:21.161Z,7.00
2023-05-13T06:24:22.736Z,7.60
2023-05-13T06:26:24.825Z,7.25
2023-05-13T06:28:26.663Z,7.00
2023-05-13T06:30:28.526Z,7.00
2023-05-13T06:32:31.637Z,9.00
2023-05-13T06:34:33.183Z,6.80
2023-05-13T06:36:34.830Z,9.20
2023-05-13T06:38:36.654Z,8.60
2023-05-13T06:40:38.452Z,6.80
2023-05-13T06:42:40.293Z,9.80
2023-05-13T06:44:42.210Z,7.00
2023-05-13T06:46:43.855Z,8.20
2023-05-13T06:48:46.924Z,7.00
2023-05-13T06:50:48.540Z,4.60
2023-05-13T06:52:50.082Z,6.60
2023-05-13T06:54:51.692Z,6.60
2023-05-13T06:56:53.738Z,8.80
2023-05-13T06:58:55.852Z,7.00
2023-05-13T07:00:57.759Z,5.40
2023-05-13T07:02:59.750Z,7.40
2023-05-13T07:05:02.764Z,7.00
2023-05-13T07:07:04.704Z,5.80
2023-05-13T07:09:08.472Z,6.20
2023-05-13T07:11:10.116Z,5.00
2023-05-13T07:13:12.397Z,7.00
2023-05-13T07:15:14.030Z,5.00
2023-05-13T07:17:15.870Z,8.20
2023-05-13T07:19:17.685Z,5.60
2023-05-13T07:21:20.867Z,5.20
2023-05-13T07:23:23.478Z,4.60
2023-05-13T07:25:25.111Z,6.60
2023-05-13T07:27:26.744Z,6.00
2023-05-13T07:29:28.560Z,7.40
2023-05-13T07:31:31.091Z,4.20
2023-05-13T07:33:32.746Z,6.00
2023-05-13T07:35:34.636Z,6.80
2023-05-13T07:37:37.943Z,5.80
2023-05-13T07:39:39.568Z,8.00
2023-05-13T07:41:41.183Z,8.80
2023-05-13T07:43:43.315Z,7.00
2023-05-13T07:45:44.885Z,6.80
2023-05-13T07:47:46.775Z,5.00
2023-05-13T07:49:49.269Z,5.00
2023-05-13T07:51:50.919Z,4.25
2023-05-13T07:53:53.968Z,5.25
2023-05-13T07:55:55.806Z,7.00
2023-05-13T07:57:57.485Z,5.75
2023-05-13T07:59:59.388Z,5.25
2023-05-13T08:02:01.926Z,6.25
2023-05-13T08:04:03.959Z,3.25
2023-05-13T08:06:05.903Z,5.00
2023-05-13T08:08:07.517Z,7.50
2023-05-13T08:10:11.282Z,7.00
2023-05-13T08:12:12.855Z,7.00
2023-05-13T08:14:14.392Z,7.75
2023-05-13T08:16:16.252Z,5.50
2023-05-13T08:18:18.267Z,7.25
2023-05-13T08:20:20.531Z,6.00
2023-05-13T08:22:23.129Z,6.00
2023-05-13T08:24:24.879Z,5.50
2023-05-13T08:26:28.228Z,4.00
2023-05-13T08:28:30.250Z,5.75
2023-05-13T08:30:32.063Z,6.50
2023-05-13T08:32:33.728Z,5.00
2023-05-13T08:34:35.385Z,6.25
2023-05-13T08:36:36.958Z,4.00
2023-05-13T08:38:38.827Z,3.75
2023-05-13T08:40:42.161Z,5.25
2023-05-13T08:42:48.148Z,7.25
2023-05-13T08:44:52.476Z,5.25
2023-05-13T08:47:02.222Z,5.00
2023-05-13T08:49:04.833Z,5.50
2023-05-13T08:51:06.958Z,3.00
2023-05-13T08:53:11.319Z,4.00
2023-05-13T08:55:13.231Z,5.50
2023-05-13T08:57:16.214Z,6.00
2023-05-13T08:59:19.757Z,4.00
2023-05-13T09:01:22.902Z,6.00
2023-05-13T09:03:28.921Z,6.00
2023-05-13T09:05:31.505Z,5.00
2023-05-13T09:07:33.760Z,6.00
2023-05-13T09:09:37.247Z,5.75
2023-05-13T09:11:39.082Z,5.00
2023-05-13T09:13:43.360Z,4.50
2023-05-13T09:15:46.356Z,5.00
2023-05-13T09:17:49.750Z,5.75
2023-05-13T09:19:51.670Z,2.50
2023-05-13T09:21:54.077Z,5.00
2023-05-13T09:24:11.319Z,4.75
2023-05-13T09:26:26.891Z,6.00
2023-05-13T09:28:28.492Z,5.75
2023-05-13T09:30:33.946Z,7.00
2023-05-13T09:32:37.417Z,5.67
2023-05-13T09:34:40.363Z,5.25
2023-05-13T09:36:42.021Z,5.25
2023-05-13T09:38:43.934Z,5.25
2023-05-13T09:40:52.235Z,5.00
2023-05-13T09:42:57.820Z,4.25
2023-05-13T09:45:05.359Z,6.50
2023-05-13T09:47:07.130Z,5.00
2023-05-13T09:49:10.787Z,6.25
2023-05-13T09:51:12.406Z,5.50
2023-05-13T09:53:14.217Z,4.00
2023-05-13T09:55:16.342Z,5.25
2023-05-13T09:57:18.022Z,7.75
2023-05-13T09:59:19.616Z,3.25
2023-05-13T10:01:22.196Z,6.00
